HRGA4: Little River, Horatio, AR

Data processed at Thu Jan 04 2018 23:10


All information presented herein is the property of the government of the United States of America and may be revised or deleted at any time without prior notice.
Dissemination of this information without the expressed written consent of the Public Affairs Office, Tulsa District U.S. Army Corps of Engineers is strictly prohibited.
These data are gathered electronically and, as presented, have not undergone any form of quality control. These data are not guaranteed to be valid or correct.
Go to home page.
Go to station list.

Upstream stations:

Downstream station:
Previous Day
Next Day
Current Day
    
SHEF ID:       HRGA4     Little River near Horatio, AR
STATION TYPE:  

               PRECIP     STAGE  RIV-FLOW  BAT-LOAD
                   in        ft       cfs      volt
              Ccp-Rev   Ccp-Rev   Ccp-Rev   Ccp-Rev
(US/Central)
01/02 00:00      0.00      6.55      1339     12.89
01/02 01:00      0.00      6.71      1441     12.89
01/02 02:00      0.00      6.78      1486     12.89
01/02 03:00      0.00      6.79      1492     12.81
01/02 04:00      0.00      6.76      1473     12.81
01/02 05:00      0.00      6.70      1434     12.81
01/02 06:00      0.00      6.63      1390     12.81
01/02 07:00      0.00      6.54      1332     12.81
01/02 08:00      0.00      6.45      1276     12.81
01/02 09:00      0.00      6.35      1213     12.81
01/02 10:00      0.00      6.26      1157     13.05
01/02 11:00      0.00      6.17      1102     13.53
01/02 12:00      0.00      6.08      1047     13.68
01/02 13:00      0.00      6.00       999     13.84
01/02 14:00      0.00      5.91       945     13.84
01/02 15:00      0.00      5.84       904     13.60
01/02 16:00      0.00      5.77       863     13.29
01/02 17:00      0.00      5.71       828     13.13
01/02 18:00      0.00      5.65       793     13.05
01/02 19:00      0.00      5.59       758     12.97
01/02 20:00      0.00      5.56       741     12.97
01/02 21:00      0.00      5.61       770     12.89
01/02 22:00      0.00      5.83       898     12.89
01/02 23:00      0.00      6.16      1096     12.89